イヌヴィック空港の過去48時間の天気

イヌヴィック空港 (Inuvik)

現在時刻: 9/16 09:13 MDT (9/16 15:13 UTC) 以下の時間は現地時間です。

過去48時間のMETAR気象情報
時間 風向 風速(m/s) 視程 気温(℃) 湿度(%) 気圧(hPa) 天気現象
16 08:00 東北東 5 10km以上 4 81 1006.2
16 07:00 5 10km以上 5 75 1006.4
16 06:00 5 10km以上 5 75 1006.5
16 05:00 4 10km以上 5 81 1006.5
16 04:00 東南東 5 10km以上 5 81 1006.6
16 03:00 5 10km以上 5 81 1006.9
16 02:00 東南東 5 10km以上 5 81 1007.1
16 01:00 東南東 5 10km以上 5 81 1007.7
16 00:00 5 10km以上 5 81 1008
15 23:00 東南東 4 10km以上 5 75 1008.2
15 22:00 東南東 5 10km以上 5 75 1008.6
15 21:00 南東 4 10km以上 7 66 1008.9
15 20:00 南東 6 10km以上 8 61 1009.2
15 19:00 4 10km以上 9 62 1009.7
15 18:00 南南東 4 10km以上 8 66 1010.7
15 17:00 南東 3 10km以上 8 71 1011.6
15 16:00 南南西 4 10km以上 6 76 1012.6
15 15:00 3 10km以上 5 87 1012.9
15 14:51 南南東 5 10km以上 5 81 1013
15 14:00 4 10km以上 5 87 1013.4
15 13:00 4 10km以上 3 93 1014.1
15 12:24 4 10km以上 3 93 1014.4
15 12:00 南南東 5 10km以上 3 93 1014.7 弱い霧雨
15 11:00 3 10km以上 3 93 1015.2 弱い霧雨
15 10:00 3 10km以上 3 93 1015.8 弱い霧雨
15 09:00 南南西 3 10km以上 3 93 1016.2 弱い霧雨
15 08:00 3 10km以上 3 93 1016.7 弱い霧雨
15 07:00 南西 2 10km以上 3 93 1016.9 弱い霧雨
15 06:00 不定 1 10km以上 3 93 1017.2 弱い霧雨
15 05:00 西 2 10km以上 3 93 1017.5 弱い霧雨
15 04:26 南南西 3 10km以上 3 93 1017.6 弱い霧雨
15 04:00 南西 3 10km以上 3 93 1017.7
15 03:29 南西 2 10km以上 3 93 1017.7
15 03:00 西南西 2 10km以上 3 93 1017.8
15 02:00 静穏 0 10km以上 3 100 1017.9
15 01:37 静穏 0 10km以上 3 100 1017.9
15 01:00 静穏 0 8050m 3 100 1018.1 弱い霧雨
15 00:36 1 6450m 3 100 1018.1 弱い霧雨
15 00:17 西 1 3200m 2 100 1018.2 弱い霧雨
15 00:00 西北西 1 10km以上 2 100 1018.2 周辺でしゅう雨
14 23:00 北北西 2 10km以上 3 93 1018.1
14 22:00 北北西 3 10km以上 3 100 1018.1
14 21:00 北西 2 10km以上 4 93 1017.9
14 20:00 西北西 2 10km以上 5 93 1017.9 周辺でしゅう雨
14 19:00 北西 3 10km以上 5 93 1017.8 弱い霧雨
14 18:00 北西 3 10km以上 6 87 1017.6 弱い霧雨 もや
14 17:00 3 10km以上 5 93 1017.3 弱い霧雨 もや
14 16:00 北北西 5 10km以上 5 87 1017 もや
14 15:44 北西 3 10km以上 6 81 1016.8
14 15:00 北北西 5 10km以上 6 81 1016.5 弱い霧雨 もや
14 14:00 北北西 4 8050m 5 93 1016.1 もや
14 13:00 4 10km以上 5 93 1015.8 もや
14 12:49 北北西 4 8050m 5 93 1015.8 もや
14 12:18 3 6450m 5 93 1015.7 弱い霧雨 もや
14 12:00 北西 4 8050m 5 93 1015.6 もや
14 11:00 北西 4 10km以上 5 93 1015.2
14 10:00 北西 4 10km以上 5 87 1014.7
14 09:34 北北西 5 10km以上 4 93 1014.4
CYEV 161400Z 07009KT 15SM BKN028 04/01 A2970 RMK SC7 SLP062
CYEV 161300Z 08010KT 15SM OVC031 05/01 A2970 RMK SC8 SLP064
CYEV 161200Z 09010KT 15SM OVC033 05/01 A2970 RMK SC8 SLP065
CYEV 161100Z 09008KT 15SM OVC034 05/02 A2970 RMK SC8 SLP065
CYEV 161000Z 11010KT 15SM OVC035 05/02 A2971 RMK SC8 SLP066
CYEV 160900Z 10010KT 15SM OVC035 05/02 A2972 RMK SC8 SLP069
CYEV 160800Z 11009KT 15SM OVC036 05/02 A2972 RMK SC8 SLP071
CYEV 160700Z 11009KT 15SM BKN039 05/02 A2974 RMK SC7 SLP077
CYEV 160600Z 10010KT 15SM BKN040 05/02 A2975 RMK SC7 SLP080
CYEV 160500Z 11007KT 15SM BKN043 05/01 A2976 RMK SC6 SLP082
CYEV 160400Z 11009KT 15SM SCT043 05/01 A2977 RMK SC4 SLP086
CYEV 160300Z 13008KT 15SM FEW040 07/01 A2978 RMK SC2 SLP089
CYEV 160200Z 14011G16KT 15SM FEW030 08/01 A2978 RMK SC2 SLP092
CYEV 160100Z 18007KT 15SM SCT030 09/02 A2980 RMK SC3 SLP097
CYEV 160000Z 15007KT 15SM SCT025 08/02 A2983 RMK SC3 SLP107
CYEV 152300Z 14005KT 080V200 14SM BKN020 08/03 A2986 RMK SC5 SLP116
CYEV 152200Z 20008KT 15SM BKN014 06/02 A2988 RMK SC7 SLP126
CYEV 152100Z 17006KT 15SM OVC011 05/03 A2989 RMK SC8 SLP129
CYEV 152051Z 16009KT 15SM OVC013 05/02 A2989 RMK SC8 SLP130
CYEV 152000Z 17008KT 140V200 10SM BKN009 OVC015 05/03 A2991 RMK SC6SC2 SLP134
CYEV 151900Z 19008KT 10SM OVC008 03/02 A2993 RMK ST8 SLP141
CYEV 151824Z 18008KT 10SM OVC007 03/02 A2994 RMK ST8 SLP144
CYEV 151800Z 16009KT 10SM -DZ OVC008 03/02 A2995 RMK ST8 SLP147
CYEV 151700Z 18006KT 10SM -DZ OVC009 03/02 A2996 RMK ST8 SLP152
CYEV 151600Z 18006KT 10SM -DZ OVC007 03/02 A2998 RMK ST8 SLP158
CYEV 151500Z 21006KT 10SM -DZ OVC007 03/02 A2999 RMK ST8 SLP162
CYEV 151400Z 19005KT 160V240 10SM -DZ OVC007 03/02 A3000 RMK ST8 SLP167
CYEV 151300Z 22003KT 200V260 15SM -DZ OVC005 03/02 A3001 RMK ST8 SLP169
CYEV 151200Z VRB02KT 15SM -DZ OVC006 03/02 A3002 RMK ST8 SLP172
CYEV 151100Z 27004KT 230V290 15SM -DZ OVC007 03/02 A3003 RMK ST8 SLP175
CYEV 151026Z 21005KT 190V260 15SM -DZ OVC006 03/02 A3003 RMK ST8 SLP176
CYEV 151000Z 23006KT 15SM OVC006 03/02 A3003 RMK ST8 SLP177
CYEV 150929Z 23004KT 15SM OVC008 03/02 A3003 RMK ST8 SLP177
CYEV 150900Z 24004KT 15SM FEW005 OVC010 03/02 A3004 RMK SF1ST8 SF TR SLP178
CYEV 150800Z 00000KT 15SM FEW005 OVC011 03/03 A3004 RMK SF2ST6 SLP179
CYEV 150737Z 00000KT 15SM SCT004 BKN010 03/03 A3004 RMK SF3ST4 SLP179
CYEV 150700Z 00000KT 5SM -DZ FEW001 OVC006 03/03 A3005 RMK SF2ST6 SLP181
CYEV 150636Z 36002KT 4SM -DZ SCT002 OVC006 03/03 A3005 RMK DZ2SF2ST4 SLP181
CYEV 150617Z 28002KT 2SM -DZ OVC005 02/02 A3005 RMK DZ3ST5 SLP182
CYEV 150600Z 30002KT 8SM VCSH SCT010 BKN015 BKN070 02/02 A3005 RMK SF4SC3AC1 AC TR SLP182
CYEV 150500Z 34003KT 15SM FEW010 SCT027 03/02 A3005 RMK SF1SC3 SLP181
CYEV 150400Z 34005KT 10SM FEW010 OVC027 03/03 A3005 RMK SF2SC6 SLP181
CYEV 150300Z 31004KT 10SM SCT010 OVC021 04/03 A3004 RMK SF3SC5 SLP179
CYEV 150200Z 30004KT 10SM VCSH FEW010 BKN026 05/04 A3004 RMK SF2SC5 SLP179
CYEV 150100Z 32005KT 10SM -DZ SCT011 BKN026 05/04 A3004 RMK SF3SC3 -DZ INTMNT SLP178
CYEV 150000Z 32006KT 10SM -DZ BR BKN011 OVC020 06/04 A3003 RMK SF6SF2 SLP176
CYEV 142300Z 35006KT 6SM -DZ BR SCT015 OVC020 05/04 A3002 RMK SF3SF5 SLP173
CYEV 142200Z 33009G15KT 300V020 6SM BR BKN013 OVC025 05/03 A3001 RMK SC6SC2 SLP170
CYEV 142144Z 32006KT 10SM BKN013 OVC028 06/03 A3001 RMK SC6SC2 SLP168
CYEV 142100Z 33010KT 300V010 10SM -DZ BR BKN013 OVC021 06/03 A3000 RMK SF6SF2 SLP165
CYEV 142000Z 34008KT 5SM BR BKN009 OVC015 05/04 A2999 RMK ST5SC3 SLP161
CYEV 141900Z 35007KT 6SM BR BKN009 OVC016 05/04 A2998 RMK ST5SC3 VIS S-SW 2 SLP158
CYEV 141849Z 33007KT 5SM BR BKN005 OVC015 05/04 A2998 RMK ST6SC2 SLP158
CYEV 141818Z 35006KT 4SM -DZ BR BKN006 OVC025 05/04 A2998 RMK ST7SC1 SLP157
CYEV 141800Z 31007KT 5SM BR BKN006 OVC025 05/04 A2997 RMK ST7SC1 SLP156
CYEV 141700Z 32007KT 10SM BKN007 OVC025 05/04 A2996 RMK ST6SC2 SLP152
CYEV 141600Z 32008KT 10SM BKN007 OVC020 05/03 A2995 RMK ST6SC2 VIS N-NE 2 SLP147
CYEV 141534Z 33009KT 15SM BKN006 OVC027 04/03 A2994 RMK ST6SC2 SLP144